Time;durP1;ratioP1;P1;durP2;ratioP2;P2;SDS_P1;SDS_P2;PMS_P1;PMS_P2;Temp;Humidity;BMP_temperature;BMP_pressure;BME280_temperature;BME280_humidity;BME280_pressure;Samples;Min_cycle;Max_cycle;Signal;HPM_P1;HPM_P2
2024/02/28 00:02:00;;;;;;;1.30;1.20;;;;;;;;;;5001951;28;20022;-52
2024/02/28 00:04:26;;;;;;;1.30;1.20;;;;;;;;;;5008810;28;20040;-52
2024/02/28 00:06:53;;;;;;;2.00;1.15;;;;;;;;;;5005156;28;20363;-51
2024/02/28 00:09:19;;;;;;;1.60;1.50;;;;;;;;;;5004720;28;20041;-50
2024/02/28 00:11:46;;;;;;;3.85;1.80;;;;;;;;;;4995384;28;20025;-52
2024/02/28 00:14:12;;;;;;;1.45;1.17;;;;;;;;;;5010435;28;20030;-56
2024/02/28 00:16:42;;;;;;;2.38;1.20;;;;;;;;;;4999911;28;20445;-50
2024/02/28 00:19:08;;;;;;;1.85;1.23;;;;;;;;;;4991575;28;20519;-50
2024/02/28 00:21:34;;;;;;;3.17;1.57;;;;;;;;;;4995017;28;20436;-51
2024/02/28 00:24:01;;;;;;;1.77;1.30;;;;;;;;;;5011546;28;20116;-54
2024/02/28 00:26:27;;;;;;;1.20;1.10;;;;;;;;;;5003049;28;20467;-54
2024/02/28 00:28:53;;;;;;;1.45;1.20;;;;;;;;;;5011914;28;20485;-52
2024/02/28 00:31:21;;;;;;;4.13;1.60;;;;;;;;;;5009104;28;20026;-53
2024/02/28 00:33:47;;;;;;;1.77;1.00;;;;;;;;;;4992820;28;20026;-50
2024/02/28 00:36:15;;;;;;;1.30;1.20;;;;;;;;;;4994880;28;20088;-53
2024/02/28 00:38:41;;;;;;;1.35;0.95;;;;;;;;;;5011543;28;20315;-53
2024/02/28 00:41:07;;;;;;;1.02;0.93;;;;;;;;;;5010444;28;20125;-52
2024/02/28 00:43:34;;;;;;;1.33;1.20;;;;;;;;;;4994517;28;20089;-53
2024/02/28 00:46:00;;;;;;;2.70;1.35;;;;;;;;;;4996546;28;20361;-51
2024/02/28 00:48:26;;;;;;;1.10;1.00;;;;;;;;;;5011948;28;20061;-51
2024/02/28 00:50:53;;;;;;;2.00;1.48;;;;;;;;;;5011431;28;20040;-52
2024/02/28 00:53:19;;;;;;;1.70;1.30;;;;;;;;;;5002961;28;20365;-51
2024/02/28 00:55:45;;;;;;;2.87;1.50;;;;;;;;;;5014270;28;20376;-51
2024/02/28 00:58:11;;;;;;;1.60;1.30;;;;;;;;;;5016216;28;20260;-52
2024/02/28 01:00:38;;;;;;;3.35;1.10;;;;;;;;;;5002955;28;20021;-51
2024/02/28 01:03:04;;;;;;;1.48;1.30;;;;;;;;;;5004484;28;20038;-51
2024/02/28 01:05:30;;;;;;;2.40;1.38;;;;;;;;;;5016431;28;20042;-51
2024/02/28 01:07:57;;;;;;;0.90;0.90;;;;;;;;;;5018116;28;20033;-51
2024/02/28 01:10:23;;;;;;;1.52;1.20;;;;;;;;;;5009638;28;20289;-52
2024/02/28 01:12:50;;;;;;;1.52;1.42;;;;;;;;;;5008708;28;20053;-52
2024/02/28 01:15:16;;;;;;;1.77;1.40;;;;;;;;;;5015924;28;20025;-52
2024/02/28 01:17:42;;;;;;;1.43;1.30;;;;;;;;;;4999593;28;20026;-52
2024/02/28 01:20:09;;;;;;;1.67;1.15;;;;;;;;;;4998530;28;20505;-53
2024/02/28 01:22:35;;;;;;;2.38;1.38;;;;;;;;;;5006465;28;20511;-51
2024/02/28 01:25:03;;;;;;;1.00;1.00;;;;;;;;;;5017773;28;20032;-51
2024/02/28 01:27:29;;;;;;;1.98;1.30;;;;;;;;;;5016314;28;20481;-53
2024/02/28 01:29:55;;;;;;;6.90;1.58;;;;;;;;;;5016224;28;20124;-50
2024/02/28 01:32:21;;;;;;;1.13;0.90;;;;;;;;;;5011466;28;20022;-51
2024/02/28 01:34:48;;;;;;;2.40;1.40;;;;;;;;;;4998492;28;20026;-51
2024/02/28 01:37:14;;;;;;;2.67;1.15;;;;;;;;;;4998053;28;20026;-51
2024/02/28 01:39:41;;;;;;;1.63;1.00;;;;;;;;;;4998258;28;20026;-52
2024/02/28 01:42:08;;;;;;;1.73;1.30;;;;;;;;;;5002128;28;20029;-51
2024/02/28 01:44:34;;;;;;;;;;;;;;;;;;5018022;28;20113;-53
2024/02/28 01:47:03;;;;;;;1.55;1.13;;;;;;;;;;5001804;28;19910;-51
2024/02/28 01:49:29;;;;;;;1.30;1.20;;;;;;;;;;4999200;28;20062;-53
2024/02/28 01:51:57;;;;;;;0.85;0.82;;;;;;;;;;4999924;28;20049;-54
2024/02/28 01:54:23;;;;;;;0.95;0.90;;;;;;;;;;5016065;28;20029;-52
2024/02/28 01:56:50;;;;;;;1.90;1.23;;;;;;;;;;5006050;28;20081;-51
2024/02/28 01:59:17;;;;;;;1.63;0.93;;;;;;;;;;4996994;28;20062;-52
2024/02/28 02:01:43;;;;;;;3.03;1.20;;;;;;;;;;4989871;28;20061;-51
2024/02/28 02:04:09;;;;;;;1.97;1.23;;;;;;;;;;4997386;28;20035;-51
2024/02/28 02:06:37;;;;;;;0.85;0.77;;;;;;;;;;4998674;28;20355;-51
2024/02/28 02:09:03;;;;;;;3.00;1.10;;;;;;;;;;5014543;28;20026;-50
2024/02/28 02:11:30;;;;;;;1.98;1.20;;;;;;;;;;5014574;28;20116;-54
2024/02/28 02:13:56;;;;;;;1.05;0.98;;;;;;;;;;5013538;28;20083;-52
2024/02/28 02:16:22;;;;;;;1.48;0.95;;;;;;;;;;5003643;28;20030;-54
2024/02/28 02:18:49;;;;;;;1.52;1.10;;;;;;;;;;4994967;28;20531;-51
2024/02/28 02:21:19;;;;;;;0.80;0.80;;;;;;;;;;4995365;28;20030;-51
2024/02/28 02:23:45;;;;;;;1.15;1.02;;;;;;;;;;5010218;28;20033;-50
2024/02/28 02:26:11;;;;;;;1.35;0.80;;;;;;;;;;5012540;28;20026;-51
2024/02/28 02:28:37;;;;;;;1.45;1.20;;;;;;;;;;5002349;28;20088;-52
2024/02/28 02:31:04;;;;;;;0.88;0.88;;;;;;;;;;5001274;28;20180;-51
2024/02/28 02:33:30;;;;;;;2.88;1.35;;;;;;;;;;5007331;28;20103;-53
2024/02/28 02:35:56;;;;;;;1.17;1.08;;;;;;;;;;5000627;28;20448;-51
2024/02/28 02:38:22;;;;;;;0.80;0.80;;;;;;;;;;5008806;28;20042;-51
2024/02/28 02:40:49;;;;;;;1.10;1.00;;;;;;;;;;4995915;28;20042;-51
2024/02/28 02:43:15;;;;;;;1.27;0.90;;;;;;;;;;5003876;28;20033;-51
2024/02/28 02:45:43;;;;;;;2.85;1.17;;;;;;;;;;5008738;28;20051;-51
2024/02/28 02:48:09;;;;;;;1.48;0.90;;;;;;;;;;4995315;28;20050;-52
2024/02/28 02:50:35;;;;;;;2.17;0.95;;;;;;;;;;4998724;28;20034;-55
2024/02/28 02:53:02;;;;;;;1.05;0.80;;;;;;;;;;5005358;28;20113;-52
2024/02/28 02:55:28;;;;;;;1.90;1.27;;;;;;;;;;4993939;28;20493;-52
2024/02/28 02:57:55;;;;;;;1.35;1.00;;;;;;;;;;4995062;28;20030;-51
2024/02/28 03:00:21;;;;;;;0.90;0.80;;;;;;;;;;4996164;28;20035;-52
2024/02/28 03:02:48;;;;;;;0.95;0.82;;;;;;;;;;5007369;28;20065;-52
2024/02/28 03:05:14;;;;;;;0.70;0.70;;;;;;;;;;5003311;28;20473;-54
2024/02/28 03:07:40;;;;;;;0.73;0.70;;;;;;;;;;5005183;28;20065;-54
2024/02/28 03:10:07;;;;;;;0.80;0.80;;;;;;;;;;4996695;28;20492;-53
2024/02/28 03:12:33;;;;;;;2.70;1.00;;;;;;;;;;4997769;28;20432;-51
2024/02/28 03:15:00;;;;;;;2.70;0.90;;;;;;;;;;5008993;28;20026;-53
2024/02/28 03:17:26;;;;;;;1.02;0.70;;;;;;;;;;4993846;28;20037;-52
2024/02/28 03:19:52;;;;;;;0.73;0.65;;;;;;;;;;4993659;28;20121;-51
2024/02/28 03:22:19;;;;;;;0.55;0.55;;;;;;;;;;4994789;28;20440;-51
2024/02/28 03:24:45;;;;;;;2.53;0.85;;;;;;;;;;5010628;28;20030;-53
2024/02/28 03:27:11;;;;;;;1.00;0.85;;;;;;;;;;5011252;28;20034;-52
2024/02/28 03:29:38;;;;;;;1.95;0.70;;;;;;;;;;5012637;28;20507;-51
2024/02/28 03:32:04;;;;;;;0.50;0.50;;;;;;;;;;4996735;28;20029;-53
2024/02/28 03:34:30;;;;;;;1.45;0.40;;;;;;;;;;4993152;28;20070;-53
2024/02/28 03:36:56;;;;;;;0.60;0.60;;;;;;;;;;5008109;28;20030;-54
2024/02/28 03:39:23;;;;;;;1.85;0.50;;;;;;;;;;4995267;28;20261;-50
2024/02/28 03:41:49;;;;;;;0.35;0.35;;;;;;;;;;5006973;28;20391;-53
2024/02/28 03:44:15;;;;;;;0.40;0.40;;;;;;;;;;4993097;28;20058;-54
2024/02/28 03:46:41;;;;;;;0.50;0.50;;;;;;;;;;4999560;28;20026;-53
2024/02/28 03:49:08;;;;;;;0.60;0.60;;;;;;;;;;5011253;28;20086;-50
2024/02/28 03:51:39;;;;;;;0.82;0.45;;;;;;;;;;5002657;28;20034;-51
2024/02/28 03:54:06;;;;;;;0.50;0.47;;;;;;;;;;5004779;28;20030;-54
2024/02/28 03:56:32;;;;;;;0.50;0.50;;;;;;;;;;5007129;28;20109;-51
2024/02/28 03:58:58;;;;;;;0.70;0.70;;;;;;;;;;5011014;28;20538;-51
2024/02/28 04:01:24;;;;;;;0.68;0.68;;;;;;;;;;4992039;28;20077;-53
2024/02/28 04:03:51;;;;;;;0.43;0.40;;;;;;;;;;4993291;28;20014;-52
2024/02/28 04:06:17;;;;;;;2.17;0.40;;;;;;;;;;4997521;28;20484;-51
2024/02/28 04:08:43;;;;;;;1.00;0.52;;;;;;;;;;4994770;28;20030;-51
2024/02/28 04:11:09;;;;;;;0.57;0.57;;;;;;;;;;5012269;28;20026;-53
2024/02/28 04:13:35;;;;;;;0.60;0.60;;;;;;;;;;5002873;28;20073;-54
2024/02/28 04:16:03;;;;;;;0.80;0.52;;;;;;;;;;5007154;28;20033;-53
2024/02/28 04:18:30;;;;;;;1.83;0.50;;;;;;;;;;5010752;28;20099;-55
2024/02/28 04:20:56;;;;;;;0.98;0.57;;;;;;;;;;4991391;28;20041;-53
2024/02/28 04:23:22;;;;;;;0.50;0.50;;;;;;;;;;4992899;28;20030;-53
2024/02/28 04:25:48;;;;;;;0.60;0.60;;;;;;;;;;4990928;28;20085;-54
2024/02/28 04:28:15;;;;;;;0.82;0.50;;;;;;;;;;4992286;28;20109;-53
2024/02/28 04:30:41;;;;;;;0.73;0.73;;;;;;;;;;4997290;28;20040;-53
2024/02/28 04:33:07;;;;;;;0.80;0.65;;;;;;;;;;5008696;28;20054;-54
2024/02/28 04:35:33;;;;;;;0.93;0.73;;;;;;;;;;4997760;28;20034;-53
2024/02/28 04:37:59;;;;;;;6.37;0.60;;;;;;;;;;5011913;28;20018;-52
2024/02/28 04:40:26;;;;;;;1.27;0.40;;;;;;;;;;5009381;28;21483;-53
2024/02/28 04:42:52;;;;;;;1.00;0.63;;;;;;;;;;4997972;28;20026;-52
2024/02/28 04:45:18;;;;;;;0.83;0.50;;;;;;;;;;5008033;28;20503;-51
2024/02/28 04:47:45;;;;;;;0.50;0.50;;;;;;;;;;5005925;28;20030;-53
2024/02/28 04:50:11;;;;;;;0.60;0.50;;;;;;;;;;4992471;28;20453;-53
2024/02/28 04:52:37;;;;;;;0.60;0.60;;;;;;;;;;5010219;28;20276;-50
2024/02/28 04:55:03;;;;;;;3.67;0.95;;;;;;;;;;5011323;28;20030;-51
2024/02/28 04:57:30;;;;;;;1.10;0.57;;;;;;;;;;5005055;28;20073;-47
2024/02/28 04:59:56;;;;;;;0.95;0.80;;;;;;;;;;5003923;28;20037;-52
2024/02/28 05:02:22;;;;;;;2.13;0.88;;;;;;;;;;4990686;28;20527;-52
2024/02/28 05:04:49;;;;;;;0.90;0.73;;;;;;;;;;5020583;23;20642;-53
2024/02/28 05:07:15;;;;;;;2.57;0.80;;;;;;;;;;5009157;28;20034;-55
2024/02/28 05:09:41;;;;;;;0.80;0.80;;;;;;;;;;5009170;28;20037;-54
2024/02/28 05:12:08;;;;;;;0.95;0.95;;;;;;;;;;5009993;28;20050;-55
2024/02/28 05:14:34;;;;;;;1.17;0.90;;;;;;;;;;5008635;28;20026;-52
2024/02/28 05:17:00;;;;;;;1.30;0.75;;;;;;;;;;5009874;28;20058;-54
2024/02/28 05:19:26;;;;;;;0.70;0.70;;;;;;;;;;5009888;28;20026;-56
2024/02/28 05:21:53;;;;;;;0.82;0.82;;;;;;;;;;5011702;28;20057;-52
2024/02/28 05:24:19;;;;;;;2.53;1.27;;;;;;;;;;5010350;28;20045;-54
2024/02/28 05:26:45;;;;;;;2.42;0.80;;;;;;;;;;5011724;28;20435;-57
2024/02/28 05:29:11;;;;;;;1.63;1.00;;;;;;;;;;5010353;28;20029;-56
2024/02/28 05:31:38;;;;;;;4.25;1.17;;;;;;;;;;5011560;28;20084;-53
2024/02/28 05:34:04;;;;;;;1.23;1.13;;;;;;;;;;5010189;28;20036;-56
2024/02/28 05:36:31;;;;;;;2.03;0.80;;;;;;;;;;5004882;28;20084;-54
2024/02/28 05:38:58;;;;;;;0.95;0.90;;;;;;;;;;5001779;28;20486;-56
2024/02/28 05:41:24;;;;;;;1.98;1.40;;;;;;;;;;4995813;28;20070;-58
2024/02/28 05:43:51;;;;;;;1.55;1.30;;;;;;;;;;4994541;28;20113;-51
2024/02/28 05:46:17;;;;;;;4.70;1.80;;;;;;;;;;4995347;28;20037;-52
2024/02/28 05:48:44;;;;;;;14.40;9.52;;;;;;;;;;4995498;28;20559;-57
2024/02/28 05:51:13;;;;;;;12.75;8.20;;;;;;;;;;4994128;28;20034;-56
2024/02/28 05:53:40;;;;;;;12.45;9.45;;;;;;;;;;4995329;28;20109;-58
2024/02/28 05:56:13;;;;;;;13.05;10.43;;;;;;;;;;4995099;28;20026;-52
2024/02/28 05:58:48;;;;;;;9.98;7.18;;;;;;;;;;4994062;28;20489;-55
2024/02/28 06:01:18;;;;;;;6.28;5.68;;;;;;;;;;4994134;28;20037;-52
2024/02/28 06:03:50;;;;;;;6.70;6.10;;;;;;;;;;4994058;28;20500;-54
2024/02/28 06:06:17;;;;;;;8.77;7.88;;;;;;;;;;5000502;28;20602;-56
2024/02/28 06:08:43;;;;;;;13.93;11.85;;;;;;;;;;5014731;28;20037;-55
2024/02/28 06:11:10;;;;;;;15.63;14.43;;;;;;;;;;5013391;28;20499;-56
2024/02/28 06:13:36;;;;;;;13.40;10.75;;;;;;;;;;5014661;28;20265;-56
2024/02/28 06:16:03;;;;;;;5.13;4.55;;;;;;;;;;5014391;28;20506;-56
2024/02/28 06:18:33;;;;;;;;;;;;;;;;;;5014896;28;20030;-57
2024/02/28 06:21:00;;;;;;;2.80;2.60;;;;;;;;;;5014480;28;19956;-52
2024/02/28 06:23:26;;;;;;;;;;;;;;;;;;5013629;28;20030;-53
2024/02/28 06:25:52;;;;;;;7.82;7.18;;;;;;;;;;5014171;28;20402;-55
2024/02/28 06:28:19;;;;;;;4.95;4.28;;;;;;;;;;5014292;28;20129;-53
2024/02/28 06:30:48;;;;;;;3.05;2.22;;;;;;;;;;5014219;28;20030;-56
2024/02/28 06:33:14;;;;;;;4.88;2.75;;;;;;;;;;5014287;28;20022;-56
2024/02/28 06:35:41;;;;;;;4.20;3.90;;;;;;;;;;5012823;28;20484;-55
2024/02/28 06:38:07;;;;;;;5.70;5.18;;;;;;;;;;5013024;28;20300;-52
2024/02/28 06:40:33;;;;;;;4.97;4.57;;;;;;;;;;5014113;28;20029;-55
2024/02/28 06:43:00;;;;;;;5.18;4.03;;;;;;;;;;5014040;28;20092;-55
2024/02/28 06:45:26;;;;;;;1.95;1.60;;;;;;;;;;5013752;28;20041;-55
2024/02/28 06:47:53;;;;;;;4.43;4.13;;;;;;;;;;5014315;28;20041;-55
2024/02/28 06:50:19;;;;;;;79.70;73.03;;;;;;;;;;5013748;28;20038;-55
2024/02/28 06:52:45;;;;;;;13.77;12.57;;;;;;;;;;5012846;28;20092;-55
2024/02/28 06:55:13;;;;;;;20.73;18.83;;;;;;;;;;5013665;28;20064;-55
2024/02/28 06:57:40;;;;;;;7.95;7.15;;;;;;;;;;5013864;28;20026;-55
2024/02/28 07:00:18;;;;;;;11.15;10.02;;;;;;;;;;5013866;28;20034;-55
2024/02/28 07:02:45;;;;;;;2.75;2.38;;;;;;;;;;5013772;28;20040;-56
2024/02/28 07:05:11;;;;;;;4.85;2.30;;;;;;;;;;5013387;28;20113;-54
2024/02/28 07:07:37;;;;;;;2.73;1.87;;;;;;;;;;5013619;28;20030;-56
2024/02/28 07:10:04;;;;;;;2.30;2.08;;;;;;;;;;5013457;28;20281;-54
2024/02/28 07:12:30;;;;;;;2.05;1.80;;;;;;;;;;5013675;28;20026;-55
2024/02/28 07:14:56;;;;;;;4.00;3.47;;;;;;;;;;5013779;28;20533;-51
2024/02/28 07:17:23;;;;;;;4.45;4.15;;;;;;;;;;5013364;28;20108;-53
2024/02/28 07:19:49;;;;;;;4.90;3.58;;;;;;;;;;5013401;28;20038;-54
2024/02/28 07:22:15;;;;;;;3.50;3.20;;;;;;;;;;5012995;28;20085;-56
2024/02/28 07:24:42;;;;;;;5.80;2.15;;;;;;;;;;5013083;28;20026;-52
2024/02/28 07:27:08;;;;;;;5.03;2.73;;;;;;;;;;5011532;28;20033;-56
2024/02/28 07:29:34;;;;;;;3.23;2.83;;;;;;;;;;5010776;28;20393;-52
2024/02/28 07:32:02;;;;;;;3.13;2.80;;;;;;;;;;5012478;28;20275;-51
2024/02/28 07:34:28;;;;;;;7.60;2.95;;;;;;;;;;5012908;28;20072;-52
2024/02/28 07:36:54;;;;;;;3.50;2.55;;;;;;;;;;5012807;28;20118;-54
2024/02/28 07:39:20;;;;;;;3.63;2.65;;;;;;;;;;5012983;28;20119;-55
2024/02/28 07:41:47;;;;;;;3.03;2.67;;;;;;;;;;5013405;28;20025;-52
2024/02/28 07:44:13;;;;;;;2.83;2.40;;;;;;;;;;5011576;28;20030;-52
2024/02/28 07:46:42;;;;;;;1.92;1.80;;;;;;;;;;5011591;28;20026;-53
2024/02/28 07:49:08;;;;;;;2.97;1.40;;;;;;;;;;5012835;28;20037;-50
2024/02/28 07:51:34;;;;;;;4.37;2.47;;;;;;;;;;5011330;28;20034;-53
2024/02/28 07:54:00;;;;;;;1.47;1.37;;;;;;;;;;4995086;28;20265;-52
2024/02/28 07:56:27;;;;;;;2.85;2.25;;;;;;;;;;5011262;28;20032;-54
2024/02/28 07:58:53;;;;;;;4.15;3.25;;;;;;;;;;5012752;28;20030;-52
2024/02/28 08:01:22;;;;;;;4.00;3.55;;;;;;;;;;5012254;28;20542;-52
2024/02/28 08:03:48;;;;;;;3.95;2.28;;;;;;;;;;5012593;28;20446;-53
2024/02/28 08:06:16;;;;;;;2.60;1.92;;;;;;;;;;5012035;28;20061;-52
2024/02/28 08:08:45;;;;;;;2.22;1.75;;;;;;;;;;5012440;28;20169;-52
2024/02/28 08:11:11;;;;;;;1.73;1.40;;;;;;;;;;5012391;28;20082;-51
2024/02/28 08:13:37;;;;;;;1.77;1.63;;;;;;;;;;5011300;28;20496;-53
2024/02/28 08:16:04;;;;;;;1.83;1.38;;;;;;;;;;5012170;28;20507;-55
2024/02/28 08:18:30;;;;;;;1.70;1.58;;;;;;;;;;5012276;28;20030;-55
2024/02/28 08:20:57;;;;;;;3.08;1.80;;;;;;;;;;5010877;28;20034;-53
2024/02/28 08:23:24;;;;;;;3.55;2.05;;;;;;;;;;5012216;28;20260;-53
2024/02/28 08:25:50;;;;;;;3.40;1.73;;;;;;;;;;5012096;28;20052;-51
2024/02/28 08:28:16;;;;;;;2.17;1.30;;;;;;;;;;5012220;28;20038;-55
2024/02/28 08:30:42;;;;;;;1.00;0.90;;;;;;;;;;5012098;28;20117;-52
2024/02/28 08:33:10;;;;;;;0.90;0.90;;;;;;;;;;5010790;28;20025;-52
2024/02/28 08:35:36;;;;;;;2.92;1.10;;;;;;;;;;5011823;28;20563;-53
2024/02/28 08:38:03;;;;;;;3.15;1.00;;;;;;;;;;5011995;28;20547;-52
2024/02/28 08:40:30;;;;;;;1.02;0.90;;;;;;;;;;5012218;28;20054;-52
2024/02/28 08:42:56;;;;;;;1.35;1.20;;;;;;;;;;5012038;28;20526;-51
2024/02/28 08:45:23;;;;;;;1.52;1.20;;;;;;;;;;5011803;28;20041;-55
2024/02/28 08:47:49;;;;;;;1.48;0.85;;;;;;;;;;5011958;28;20488;-52
2024/02/28 08:50:16;;;;;;;1.67;1.10;;;;;;;;;;5011858;28;20125;-52
2024/02/28 08:52:42;;;;;;;1.07;0.70;;;;;;;;;;5011895;28;20030;-54
2024/02/28 08:55:08;;;;;;;2.13;0.88;;;;;;;;;;5011722;28;20018;-52
2024/02/28 08:57:34;;;;;;;1.17;1.03;;;;;;;;;;5010672;28;20054;-54
2024/02/28 09:00:01;;;;;;;1.88;1.10;;;;;;;;;;5011852;28;20113;-52
2024/02/28 09:02:27;;;;;;;0.93;0.80;;;;;;;;;;5011763;28;20038;-55
2024/02/28 09:04:56;;;;;;;2.28;2.08;;;;;;;;;;5011633;28;20122;-52
2024/02/28 09:07:22;;;;;;;2.65;2.45;;;;;;;;;;5010294;28;20038;-52
2024/02/28 09:09:49;;;;;;;6.53;5.87;;;;;;;;;;5011691;28;20629;-55
2024/02/28 09:12:15;;;;;;;2.65;2.45;;;;;;;;;;5012160;28;20057;-56
2024/02/28 09:14:41;;;;;;;6.18;5.28;;;;;;;;;;5015715;28;20076;-53
2024/02/28 09:17:08;;;;;;;7.03;4.37;;;;;;;;;;5015487;28;20033;-53
2024/02/28 09:19:34;;;;;;;4.95;4.40;;;;;;;;;;5015601;28;20117;-53
2024/02/28 09:22:00;;;;;;;7.73;6.90;;;;;;;;;;5015682;28;20092;-54
2024/02/28 09:24:27;;;;;;;3.20;2.90;;;;;;;;;;5015634;28;20084;-53
2024/02/28 09:26:53;;;;;;;0.80;0.80;;;;;;;;;;5015511;28;20030;-56
2024/02/28 09:29:19;;;;;;;2.07;1.50;;;;;;;;;;5015585;28;20026;-55
2024/02/28 09:31:46;;;;;;;2.70;0.88;;;;;;;;;;5013756;28;20404;-54
2024/02/28 09:34:12;;;;;;;2.67;2.42;;;;;;;;;;5012707;28;20109;-53
2024/02/28 09:36:48;;;;;;;5.60;4.20;;;;;;;;;;5015209;28;20022;-52
2024/02/28 09:39:17;;;;;;;4.20;3.80;;;;;;;;;;5015246;28;20512;-56
2024/02/28 09:41:43;;;;;;;1.73;1.20;;;;;;;;;;5015215;28;20416;-54
2024/02/28 09:44:09;;;;;;;8.60;3.03;;;;;;;;;;5015030;28;20033;-51
2024/02/28 09:46:36;;;;;;;1.30;0.93;;;;;;;;;;5014896;28;20496;-53
2024/02/28 09:49:05;;;;;;;5.55;1.30;;;;;;;;;;5015028;28;20041;-55
2024/02/28 09:51:35;;;;;;;1.35;0.90;;;;;;;;;;5014914;28;20034;-56
2024/02/28 09:54:04;;;;;;;2.22;1.00;;;;;;;;;;5014943;28;20507;-55
2024/02/28 09:56:31;;;;;;;1.85;0.77;;;;;;;;;;5014707;28;20026;-52
2024/02/28 09:58:58;;;;;;;1.02;0.95;;;;;;;;;;5014868;28;20026;-55
2024/02/28 10:01:26;;;;;;;3.17;0.93;;;;;;;;;;5014737;28;20033;-55
2024/02/28 10:03:52;;;;;;;2.05;1.10;;;;;;;;;;5014802;28;20034;-54
2024/02/28 10:06:19;;;;;;;1.50;1.27;;;;;;;;;;5014505;28;20126;-56
2024/02/28 10:08:48;;;;;;;3.67;1.10;;;;;;;;;;5014777;28;20141;-53
2024/02/28 10:11:24;;;;;;;1.52;0.90;;;;;;;;;;5014436;28;20033;-54
2024/02/28 10:13:51;;;;;;;2.83;1.23;;;;;;;;;;5014567;28;20069;-56
2024/02/28 10:16:17;;;;;;;1.88;1.10;;;;;;;;;;5014319;28;20032;-54
2024/02/28 10:18:44;;;;;;;1.20;0.90;;;;;;;;;;5014525;28;20028;-54
2024/02/28 10:21:17;;;;;;;3.03;1.25;;;;;;;;;;5014419;28;20362;-54
2024/02/28 10:23:44;;;;;;;4.30;1.70;;;;;;;;;;5014264;28;20048;-56
2024/02/28 10:26:11;;;;;;;1.73;1.23;;;;;;;;;;5013658;28;20034;-55
2024/02/28 10:28:43;;;;;;;1.73;1.20;;;;;;;;;;5014350;28;20033;-56
2024/02/28 10:31:12;;;;;;;20.15;2.08;;;;;;;;;;5014186;28;20056;-56
2024/02/28 10:33:39;;;;;;;1.90;1.23;;;;;;;;;;5013068;28;20041;-55
2024/02/28 10:36:06;;;;;;;2.35;1.42;;;;;;;;;;5013983;28;20021;-56
2024/02/28 10:38:36;;;;;;;4.80;1.50;;;;;;;;;;5014172;28;20401;-56
2024/02/28 10:41:02;;;;;;;3.80;1.50;;;;;;;;;;5014054;28;20029;-56
2024/02/28 10:43:30;;;;;;;5.40;1.55;;;;;;;;;;5014071;28;20030;-56
2024/02/28 10:45:59;;;;;;;5.80;1.92;;;;;;;;;;5013848;28;20030;-56
2024/02/28 10:48:25;;;;;;;3.22;1.50;;;;;;;;;;5014037;28;20069;-56
2024/02/28 10:50:54;;;;;;;2.97;2.20;;;;;;;;;;5013869;28;20025;-56
2024/02/28 10:53:32;;;;;;;3.95;1.45;;;;;;;;;;5013837;28;20026;-54
2024/02/28 10:56:00;;;;;;;2.53;2.05;;;;;;;;;;5013701;28;20101;-52
2024/02/28 10:58:28;;;;;;;4.30;1.60;;;;;;;;;;5013818;28;20038;-53
2024/02/28 11:00:54;;;;;;;2.55;1.70;;;;;;;;;;5013670;28;20042;-52
2024/02/28 11:03:21;;;;;;;14.50;1.63;;;;;;;;;;5013622;28;20026;-52
2024/02/28 11:05:47;;;;;;;1.93;1.40;;;;;;;;;;5035518;23;20132;-53
2024/02/28 11:08:28;;;;;;;6.13;2.23;;;;;;;;;;5012255;28;20041;-56
2024/02/28 11:10:58;;;;;;;3.78;2.10;;;;;;;;;;5013501;28;20026;-54
2024/02/28 11:13:25;;;;;;;3.78;2.13;;;;;;;;;;5013593;28;20025;-52
2024/02/28 11:15:51;;;;;;;;;;;;;;;;;;5013586;28;20081;-55
2024/02/28 11:18:17;;;;;;;2.20;1.90;;;;;;;;;;5009861;28;19917;-56
2024/02/28 11:20:46;;;;;;;2.33;1.47;;;;;;;;;;5007525;28;20116;-55
2024/02/28 11:23:14;;;;;;;3.40;1.95;;;;;;;;;;4994953;28;20527;-54
2024/02/28 11:25:40;;;;;;;2.78;1.63;;;;;;;;;;4998065;28;20033;-53
2024/02/28 11:28:07;;;;;;;3.15;1.90;;;;;;;;;;4993832;28;20077;-54
2024/02/28 11:30:34;;;;;;;2.72;1.60;;;;;;;;;;4996041;28;20439;-57
2024/02/28 11:33:00;;;;;;;3.03;1.60;;;;;;;;;;5013178;28;20033;-54
2024/02/28 11:35:27;;;;;;;2.40;1.55;;;;;;;;;;5012749;28;20036;-53
2024/02/28 11:37:57;;;;;;;5.75;1.83;;;;;;;;;;5012513;28;20500;-58
2024/02/28 11:40:27;;;;;;;2.88;1.90;;;;;;;;;;5008983;28;20065;-60
2024/02/28 11:42:56;;;;;;;4.20;2.30;;;;;;;;;;4998095;28;20511;-55
2024/02/28 11:45:22;;;;;;;2.17;1.67;;;;;;;;;;5003326;28;20425;-59
2024/02/28 11:47:48;;;;;;;4.40;1.97;;;;;;;;;;5001599;28;20034;-55
2024/02/28 11:50:18;;;;;;;5.43;1.90;;;;;;;;;;5005580;28;20655;-60
2024/02/28 11:52:44;;;;;;;3.80;2.00;;;;;;;;;;4993810;28;20027;-55
2024/02/28 11:55:10;;;;;;;1.90;1.77;;;;;;;;;;4991364;28;20014;-59
2024/02/28 11:57:37;;;;;;;3.30;1.87;;;;;;;;;;5007979;28;20344;-56
2024/02/28 12:00:07;;;;;;;4.70;2.08;;;;;;;;;;4995605;28;20037;-59
2024/02/28 12:02:36;;;;;;;4.13;1.70;;;;;;;;;;4996893;28;20407;-53
2024/02/28 12:05:06;;;;;;;1.98;1.60;;;;;;;;;;5009267;28;20030;-56
2024/02/28 12:07:32;;;;;;;2.58;2.00;;;;;;;;;;4993114;28;20025;-58
2024/02/28 12:09:59;;;;;;;5.43;2.47;;;;;;;;;;5010767;28;20033;-56
2024/02/28 12:12:25;;;;;;;4.35;3.95;;;;;;;;;;5004666;28;20026;-58
2024/02/28 12:14:52;;;;;;;4.57;3.50;;;;;;;;;;4995326;28;20026;-58
2024/02/28 12:17:18;;;;;;;6.95;2.42;;;;;;;;;;4999174;28;20038;-53
2024/02/28 12:19:45;;;;;;;5.47;3.83;;;;;;;;;;4996820;28;20514;-57
2024/02/28 12:22:11;;;;;;;7.32;4.22;;;;;;;;;;5000645;28;20032;-56
2024/02/28 12:24:37;;;;;;;7.15;4.05;;;;;;;;;;4989371;28;20018;-55
2024/02/28 12:27:04;;;;;;;4.20;2.85;;;;;;;;;;5005293;28;20605;-59
2024/02/28 12:29:31;;;;;;;6.37;3.33;;;;;;;;;;5004652;28;20044;-57
2024/02/28 12:31:57;;;;;;;5.53;3.63;;;;;;;;;;5004333;28;20084;-54
2024/02/28 12:34:23;;;;;;;3.43;2.67;;;;;;;;;;5006530;28;20026;-59
2024/02/28 12:36:50;;;;;;;5.03;3.70;;;;;;;;;;5010687;28;20053;-54
2024/02/28 12:39:16;;;;;;;5.85;4.60;;;;;;;;;;5008260;28;20034;-60
2024/02/28 12:41:42;;;;;;;5.32;3.58;;;;;;;;;;4997018;28;20069;-58
2024/02/28 12:44:10;;;;;;;6.10;3.47;;;;;;;;;;5010838;28;20396;-56
2024/02/28 12:46:37;;;;;;;5.20;3.42;;;;;;;;;;4997775;28;20039;-58
2024/02/28 12:49:03;;;;;;;6.07;3.78;;;;;;;;;;4997415;28;20492;-57
2024/02/28 12:51:36;;;;;;;7.70;3.87;;;;;;;;;;4993189;28;20095;-57
2024/02/28 12:54:03;;;;;;;5.65;4.05;;;;;;;;;;5010710;28;20639;-59
2024/02/28 12:56:29;;;;;;;4.38;3.75;;;;;;;;;;5009829;28;20025;-57
2024/02/28 12:58:55;;;;;;;4.88;3.60;;;;;;;;;;5010356;28;20456;-58
2024/02/28 13:01:22;;;;;;;4.75;3.00;;;;;;;;;;4998225;28;20068;-55
2024/02/28 13:03:48;;;;;;;6.13;3.30;;;;;;;;;;4999466;28;20026;-57
2024/02/28 13:06:15;;;;;;;4.00;3.22;;;;;;;;;;5009899;28;20280;-58
2024/02/28 13:08:41;;;;;;;4.63;4.15;;;;;;;;;;5008733;28;20133;-55
2024/02/28 13:11:07;;;;;;;9.95;3.60;;;;;;;;;;5010145;28;20061;-56
2024/02/28 13:13:34;;;;;;;6.50;3.17;;;;;;;;;;4993470;28;20436;-59
2024/02/28 13:16:00;;;;;;;5.82;3.60;;;;;;;;;;4997737;28;20022;-60
2024/02/28 13:18:26;;;;;;;4.70;3.00;;;;;;;;;;5004843;28;20038;-57
2024/02/28 13:20:52;;;;;;;5.87;3.43;;;;;;;;;;4996010;28;20025;-58
2024/02/28 13:23:19;;;;;;;5.10;3.30;;;;;;;;;;4996098;28;20604;-59
2024/02/28 13:25:45;;;;;;;4.55;3.63;;;;;;;;;;4990267;28;20038;-57
2024/02/28 13:28:11;;;;;;;12.27;8.95;;;;;;;;;;4991609;28;20062;-57
2024/02/28 13:30:37;;;;;;;7.90;3.25;;;;;;;;;;4997380;28;20625;-57
2024/02/28 13:33:04;;;;;;;6.25;3.72;;;;;;;;;;5002713;28;20037;-57
2024/02/28 13:35:30;;;;;;;5.82;3.58;;;;;;;;;;4989432;28;20397;-57
2024/02/28 13:38:00;;;;;;;6.17;4.83;;;;;;;;;;5000357;28;20396;-55
2024/02/28 13:40:27;;;;;;;5.35;2.97;;;;;;;;;;4993604;28;20070;-58
2024/02/28 13:42:53;;;;;;;3.38;3.08;;;;;;;;;;4999045;28;20036;-57
2024/02/28 13:45:20;;;;;;;5.53;3.30;;;;;;;;;;4990218;28;20034;-60
2024/02/28 13:47:46;;;;;;;4.23;2.60;;;;;;;;;;5007733;28;20404;-58
2024/02/28 13:50:12;;;;;;;4.50;2.70;;;;;;;;;;5009683;28;20284;-59
2024/02/28 13:52:38;;;;;;;6.17;3.60;;;;;;;;;;5003827;28;20023;-58
2024/02/28 13:55:05;;;;;;;7.35;4.40;;;;;;;;;;4995244;28;20032;-60
2024/02/28 13:57:31;;;;;;;53.75;38.28;;;;;;;;;;4989251;28;20551;-60
2024/02/28 13:59:57;;;;;;;14.27;10.40;;;;;;;;;;5007920;28;20062;-59
2024/02/28 14:02:26;;;;;;;8.73;5.82;;;;;;;;;;5004742;28;20496;-57
2024/02/28 14:04:53;;;;;;;57.17;34.00;;;;;;;;;;5014670;28;20034;-59
2024/02/28 14:07:19;;;;;;;26.15;18.20;;;;;;;;;;5013475;28;20030;-58
2024/02/28 14:09:45;;;;;;;10.52;4.90;;;;;;;;;;5014806;28;20034;-57
2024/02/28 14:12:12;;;;;;;6.43;3.95;;;;;;;;;;5013574;28;20105;-59
2024/02/28 14:14:39;;;;;;;5.50;3.63;;;;;;;;;;5003338;28;20105;-58
2024/02/28 14:17:06;;;;;;;8.07;3.58;;;;;;;;;;4994925;28;20045;-57
2024/02/28 14:19:32;;;;;;;6.90;4.93;;;;;;;;;;4994961;28;20107;-58
2024/02/28 14:21:58;;;;;;;4.50;3.63;;;;;;;;;;4994973;28;20030;-59
2024/02/28 14:24:24;;;;;;;6.65;4.55;;;;;;;;;;4993681;28;20540;-53
2024/02/28 14:26:51;;;;;;;6.53;4.57;;;;;;;;;;4994774;28;20161;-58
2024/02/28 14:29:17;;;;;;;6.23;3.93;;;;;;;;;;4994945;28;20029;-59
2024/02/28 14:31:43;;;;;;;6.95;4.47;;;;;;;;;;5007688;28;20033;-61
2024/02/28 14:34:09;;;;;;;5.25;4.25;;;;;;;;;;5014315;28;20026;-59
2024/02/28 14:36:36;;;;;;;9.95;5.60;;;;;;;;;;5014076;28;20040;-59
2024/02/28 14:39:02;;;;;;;9.97;5.87;;;;;;;;;;5014454;28;20072;-60
2024/02/28 14:41:31;;;;;;;9.27;6.40;;;;;;;;;;5004650;28;20039;-58